EHGR

Gilze Rijen Air Base Airport

Breda, The Netherlands
METAR EHGR 212004Z AUTO 17008KT 130V200 8000 -RADZ FEW015 SCT023 BKN030 04/02 Q1012 WHT
Observed Flight Rules
Jan-21 @ 20:04 UTC (24 minutes ago) Marginal Visual Flight Rules
Wind Visibility Clouds Conditions
170° at 8 knots 7,998 meters
  • Few at 1,500' AGL
  • Scattered at 2,300' AGL
  • Broken at 3,000' AGL
  • Light Rain
  • Light Drizzle
Temperatures Readings
Current 4°C / 39°F
Dewpoint 2°C / 36°F
Humidity 87%
Altimeter 29.88" Hg
Pressure 1012 hPa
Elevation 13
METAR EHGR 212004Z AUTO 17008KT 130V200 8000 -RADZ FEW015 SCT023 BKN030 04/02 Q1012 WHT
Observed Flight Rules
Jan-21 @ 20:04 UTC
(24 minutes ago)
MVFR
Wind Visibility
170° at 8 knots 7,998 meters
Clouds
  • Few at 1,500' AGL
  • Scattered at 2,300' AGL
  • Broken at 3,000' AGL
Conditions
  • Light Rain
  • Light Drizzle
Temperature Dewpoint
4°C / 39°F 2°C / 36°F
Humidity Altimeter Pressure
87% 29.88" Hg 1012 hPa